sensor_id;sensor_type;location;lat;lon;timestamp;temperature;humidity
31809;DHT22;18379;48.208;-1.518;2023-02-02T00:03:33;8.20;99.90
31809;DHT22;18379;48.208;-1.518;2023-02-02T00:08:35;8.10;99.90
31809;DHT22;18379;48.208;-1.518;2023-02-02T00:13:38;8.00;99.90
31809;DHT22;18379;48.208;-1.518;2023-02-02T00:18:38;8.00;99.90
31809;DHT22;18379;48.208;-1.518;2023-02-02T00:23:39;8.00;99.90
31809;DHT22;18379;48.208;-1.518;2023-02-02T00:28:40;8.10;99.90
31809;DHT22;18379;48.208;-1.518;2023-02-02T00:33:48;8.00;99.90
31809;DHT22;18379;48.208;-1.518;2023-02-02T00:38:49;8.10;99.90
31809;DHT22;18379;48.208;-1.518;2023-02-02T00:43:50;8.00;99.90
31809;DHT22;18379;48.208;-1.518;2023-02-02T00:49:11;8.10;99.90
31809;DHT22;18379;48.208;-1.518;2023-02-02T00:54:12;8.10;99.90
31809;DHT22;18379;48.208;-1.518;2023-02-02T00:59:16;8.10;99.90
31809;DHT22;18379;48.208;-1.518;2023-02-02T01:04:16;8.10;99.90
31809;DHT22;18379;48.208;-1.518;2023-02-02T01:09:17;8.10;99.90
31809;DHT22;18379;48.208;-1.518;2023-02-02T01:14:18;8.30;99.90
31809;DHT22;18379;48.208;-1.518;2023-02-02T01:19:19;8.30;99.90
31809;DHT22;18379;48.208;-1.518;2023-02-02T01:24:19;8.30;99.90
31809;DHT22;18379;48.208;-1.518;2023-02-02T01:29:20;8.20;99.90
31809;DHT22;18379;48.208;-1.518;2023-02-02T01:34:21;8.20;99.90
31809;DHT22;18379;48.208;-1.518;2023-02-02T01:39:22;8.10;99.90
31809;DHT22;18379;48.208;-1.518;2023-02-02T01:50:02;8.00;99.90
31809;DHT22;18379;48.208;-1.518;2023-02-02T01:55:10;7.90;99.90
31809;DHT22;18379;48.208;-1.518;2023-02-02T02:00:15;7.90;99.90
31809;DHT22;18379;48.208;-1.518;2023-02-02T02:05:31;7.80;99.90
31809;DHT22;18379;48.208;-1.518;2023-02-02T02:10:36;7.80;99.90
31809;DHT22;18379;48.208;-1.518;2023-02-02T02:37:52;7.90;99.90
31809;DHT22;18379;48.208;-1.518;2023-02-02T02:43:03;7.90;99.90
31809;DHT22;18379;48.208;-1.518;2023-02-02T02:48:07;7.90;99.90
31809;DHT22;18379;48.208;-1.518;2023-02-02T02:53:20;8.00;99.90
31809;DHT22;18379;48.208;-1.518;2023-02-02T03:04:30;8.10;99.90
31809;DHT22;18379;48.208;-1.518;2023-02-02T03:09:18;8.10;99.90
31809;DHT22;18379;48.208;-1.518;2023-02-02T03:14:21;8.10;99.90
31809;DHT22;18379;48.208;-1.518;2023-02-02T03:19:22;8.00;99.90
31809;DHT22;18379;48.208;-1.518;2023-02-02T03:24:23;8.10;99.90
31809;DHT22;18379;48.208;-1.518;2023-02-02T03:29:24;8.10;99.90
31809;DHT22;18379;48.208;-1.518;2023-02-02T03:34:25;8.10;99.90
31809;DHT22;18379;48.208;-1.518;2023-02-02T03:39:26;8.10;99.90
31809;DHT22;18379;48.208;-1.518;2023-02-02T03:44:26;8.00;99.90
31809;DHT22;18379;48.208;-1.518;2023-02-02T03:49:27;8.00;99.90
31809;DHT22;18379;48.208;-1.518;2023-02-02T03:54:28;8.00;99.90
31809;DHT22;18379;48.208;-1.518;2023-02-02T03:59:29;8.00;99.90
31809;DHT22;18379;48.208;-1.518;2023-02-02T04:04:30;8.00;99.90
31809;DHT22;18379;48.208;-1.518;2023-02-02T04:09:30;8.10;99.90
31809;DHT22;18379;48.208;-1.518;2023-02-02T04:14:31;8.10;99.90
31809;DHT22;18379;48.208;-1.518;2023-02-02T04:19:32;8.10;99.90
31809;DHT22;18379;48.208;-1.518;2023-02-02T04:24:33;8.00;99.90
31809;DHT22;18379;48.208;-1.518;2023-02-02T04:29:33;8.00;99.90
31809;DHT22;18379;48.208;-1.518;2023-02-02T04:34:34;8.10;99.90
31809;DHT22;18379;48.208;-1.518;2023-02-02T04:39:35;8.10;99.90
31809;DHT22;18379;48.208;-1.518;2023-02-02T04:44:36;8.10;99.90
31809;DHT22;18379;48.208;-1.518;2023-02-02T04:49:37;8.10;99.90
31809;DHT22;18379;48.208;-1.518;2023-02-02T04:54:37;8.20;99.90
31809;DHT22;18379;48.208;-1.518;2023-02-02T04:59:38;8.20;99.90
31809;DHT22;18379;48.208;-1.518;2023-02-02T05:04:39;8.20;99.90
31809;DHT22;18379;48.208;-1.518;2023-02-02T05:09:40;8.30;99.90
31809;DHT22;18379;48.208;-1.518;2023-02-02T05:14:41;8.30;99.90
31809;DHT22;18379;48.208;-1.518;2023-02-02T05:19:41;8.30;99.90
31809;DHT22;18379;48.208;-1.518;2023-02-02T05:24:42;8.20;99.90
31809;DHT22;18379;48.208;-1.518;2023-02-02T05:29:43;8.20;99.90
31809;DHT22;18379;48.208;-1.518;2023-02-02T05:34:46;8.20;99.90
31809;DHT22;18379;48.208;-1.518;2023-02-02T05:39:46;8.20;99.90
31809;DHT22;18379;48.208;-1.518;2023-02-02T05:44:49;8.30;99.90
31809;DHT22;18379;48.208;-1.518;2023-02-02T05:49:50;8.30;99.90
31809;DHT22;18379;48.208;-1.518;2023-02-02T05:54:50;8.30;99.90
31809;DHT22;18379;48.208;-1.518;2023-02-02T05:59:51;8.20;99.90
31809;DHT22;18379;48.208;-1.518;2023-02-02T06:04:52;8.20;99.90
31809;DHT22;18379;48.208;-1.518;2023-02-02T06:09:52;8.20;99.90
31809;DHT22;18379;48.208;-1.518;2023-02-02T06:14:53;8.20;99.90
31809;DHT22;18379;48.208;-1.518;2023-02-02T06:19:54;8.30;99.90
31809;DHT22;18379;48.208;-1.518;2023-02-02T06:24:55;8.30;99.90
31809;DHT22;18379;48.208;-1.518;2023-02-02T06:29:56;8.20;99.90
31809;DHT22;18379;48.208;-1.518;2023-02-02T06:34:57;8.30;99.90
31809;DHT22;18379;48.208;-1.518;2023-02-02T06:39:59;8.30;99.90
31809;DHT22;18379;48.208;-1.518;2023-02-02T06:45:00;8.40;99.90
31809;DHT22;18379;48.208;-1.518;2023-02-02T06:50:03;8.40;99.90
31809;DHT22;18379;48.208;-1.518;2023-02-02T06:55:05;8.50;99.90
31809;DHT22;18379;48.208;-1.518;2023-02-02T07:00:10;8.50;99.90
31809;DHT22;18379;48.208;-1.518;2023-02-02T07:05:11;8.50;99.90
31809;DHT22;18379;48.208;-1.518;2023-02-02T07:10:12;8.50;99.90
31809;DHT22;18379;48.208;-1.518;2023-02-02T07:15:15;8.50;99.90
31809;DHT22;18379;48.208;-1.518;2023-02-02T07:20:17;8.40;99.90
31809;DHT22;18379;48.208;-1.518;2023-02-02T07:25:18;8.30;99.90
31809;DHT22;18379;48.208;-1.518;2023-02-02T07:30:20;8.30;99.90
31809;DHT22;18379;48.208;-1.518;2023-02-02T07:35:21;8.30;99.90
31809;DHT22;18379;48.208;-1.518;2023-02-02T07:40:22;8.30;99.90
31809;DHT22;18379;48.208;-1.518;2023-02-02T07:45:23;8.30;99.90
31809;DHT22;18379;48.208;-1.518;2023-02-02T07:50:25;8.30;99.90
31809;DHT22;18379;48.208;-1.518;2023-02-02T07:55:26;8.40;99.90
31809;DHT22;18379;48.208;-1.518;2023-02-02T08:00:27;8.40;99.90
31809;DHT22;18379;48.208;-1.518;2023-02-02T08:05:29;8.30;99.90
31809;DHT22;18379;48.208;-1.518;2023-02-02T08:10:31;8.30;99.90
31809;DHT22;18379;48.208;-1.518;2023-02-02T08:15:36;8.40;99.90
31809;DHT22;18379;48.208;-1.518;2023-02-02T08:20:38;8.40;99.90
31809;DHT22;18379;48.208;-1.518;2023-02-02T08:25:40;8.40;99.90
31809;DHT22;18379;48.208;-1.518;2023-02-02T08:30:40;8.40;99.90
31809;DHT22;18379;48.208;-1.518;2023-02-02T08:35:43;8.50;99.90
31809;DHT22;18379;48.208;-1.518;2023-02-02T08:40:46;8.40;99.90
31809;DHT22;18379;48.208;-1.518;2023-02-02T08:45:49;8.50;99.90
31809;DHT22;18379;48.208;-1.518;2023-02-02T08:50:57;8.40;99.90
31809;DHT22;18379;48.208;-1.518;2023-02-02T08:56:06;8.50;99.90
31809;DHT22;18379;48.208;-1.518;2023-02-02T09:01:13;8.50;99.90
31809;DHT22;18379;48.208;-1.518;2023-02-02T09:06:17;8.60;99.90
31809;DHT22;18379;48.208;-1.518;2023-02-02T09:11:19;8.60;99.90
31809;DHT22;18379;48.208;-1.518;2023-02-02T09:16:20;8.60;99.90
31809;DHT22;18379;48.208;-1.518;2023-02-02T09:21:21;8.70;99.90
31809;DHT22;18379;48.208;-1.518;2023-02-02T09:26:27;8.80;99.90
31809;DHT22;18379;48.208;-1.518;2023-02-02T09:31:30;8.80;99.90
31809;DHT22;18379;48.208;-1.518;2023-02-02T09:36:32;8.80;99.90
31809;DHT22;18379;48.208;-1.518;2023-02-02T09:51:54;9.00;99.90
31809;DHT22;18379;48.208;-1.518;2023-02-02T09:56:57;9.20;99.90
31809;DHT22;18379;48.208;-1.518;2023-02-02T10:02:18;9.40;99.90
31809;DHT22;18379;48.208;-1.518;2023-02-02T10:07:36;9.50;99.90
31809;DHT22;18379;48.208;-1.518;2023-02-02T10:12:43;9.60;99.90
31809;DHT22;18379;48.208;-1.518;2023-02-02T10:22:51;10.00;99.90
31809;DHT22;18379;48.208;-1.518;2023-02-02T10:28:05;10.10;99.90
31809;DHT22;18379;48.208;-1.518;2023-02-02T10:33:26;10.20;99.90
31809;DHT22;18379;48.208;-1.518;2023-02-02T10:38:52;10.20;99.90
31809;DHT22;18379;48.208;-1.518;2023-02-02T10:44:25;10.20;99.90
31809;DHT22;18379;48.208;-1.518;2023-02-02T10:49:32;10.40;99.90
31809;DHT22;18379;48.208;-1.518;2023-02-02T11:00:53;10.70;99.90
31809;DHT22;18379;48.208;-1.518;2023-02-02T11:06:00;10.70;99.90
31809;DHT22;18379;48.208;-1.518;2023-02-02T11:11:23;10.70;99.90
31809;DHT22;18379;48.208;-1.518;2023-02-02T11:16:27;10.80;99.90
31809;DHT22;18379;48.208;-1.518;2023-02-02T11:21:30;10.90;99.90
31809;DHT22;18379;48.208;-1.518;2023-02-02T11:31:55;10.80;99.90
31809;DHT22;18379;48.208;-1.518;2023-02-02T11:42:03;10.90;99.90
31809;DHT22;18379;48.208;-1.518;2023-02-02T11:47:06;11.20;99.90
31809;DHT22;18379;48.208;-1.518;2023-02-02T11:52:18;11.30;99.90
31809;DHT22;18379;48.208;-1.518;2023-02-02T11:57:22;11.50;99.90
31809;DHT22;18379;48.208;-1.518;2023-02-02T12:02:26;11.70;99.90
31809;DHT22;18379;48.208;-1.518;2023-02-02T12:07:30;11.70;99.90
31809;DHT22;18379;48.208;-1.518;2023-02-02T12:12:48;11.70;99.90
31809;DHT22;18379;48.208;-1.518;2023-02-02T12:17:56;11.70;99.90
31809;DHT22;18379;48.208;-1.518;2023-02-02T12:28:41;11.50;99.90
31809;DHT22;18379;48.208;-1.518;2023-02-02T12:39:31;11.80;99.90
31809;DHT22;18379;48.208;-1.518;2023-02-02T13:11:51;11.50;99.90
31809;DHT22;18379;48.208;-1.518;2023-02-02T13:17:01;11.50;99.90
31809;DHT22;18379;48.208;-1.518;2023-02-02T13:22:12;11.50;99.90
31809;DHT22;18379;48.208;-1.518;2023-02-02T13:27:18;11.70;99.90
31809;DHT22;18379;48.208;-1.518;2023-02-02T13:32:35;11.60;99.90
31809;DHT22;18379;48.208;-1.518;2023-02-02T13:38:00;11.50;99.90
31809;DHT22;18379;48.208;-1.518;2023-02-02T14:04:26;11.10;99.90
31809;DHT22;18379;48.208;-1.518;2023-02-02T14:09:28;11.20;99.90
31809;DHT22;18379;48.208;-1.518;2023-02-02T14:14:30;10.90;99.90
31809;DHT22;18379;48.208;-1.518;2023-02-02T14:34:47;11.50;99.90
31809;DHT22;18379;48.208;-1.518;2023-02-02T15:11:14;11.20;99.90
31809;DHT22;18379;48.208;-1.518;2023-02-02T15:16:33;11.30;99.90
31809;DHT22;18379;48.208;-1.518;2023-02-02T15:21:37;11.30;99.90
31809;DHT22;18379;48.208;-1.518;2023-02-02T15:26:53;11.40;99.90
31809;DHT22;18379;48.208;-1.518;2023-02-02T15:32:02;11.10;99.90
31809;DHT22;18379;48.208;-1.518;2023-02-02T15:37:45;10.90;99.90
31809;DHT22;18379;48.208;-1.518;2023-02-02T15:42:55;10.80;99.90
31809;DHT22;18379;48.208;-1.518;2023-02-02T15:47:58;10.90;99.90
31809;DHT22;18379;48.208;-1.518;2023-02-02T15:52:59;10.90;99.90
31809;DHT22;18379;48.208;-1.518;2023-02-02T15:58:01;10.90;99.90
31809;DHT22;18379;48.208;-1.518;2023-02-02T16:03:16;10.90;99.90
31809;DHT22;18379;48.208;-1.518;2023-02-02T16:08:23;10.70;99.90
31809;DHT22;18379;48.208;-1.518;2023-02-02T16:13:26;10.80;99.90
31809;DHT22;18379;48.208;-1.518;2023-02-02T16:18:29;10.80;99.90
31809;DHT22;18379;48.208;-1.518;2023-02-02T16:23:33;10.80;99.90
31809;DHT22;18379;48.208;-1.518;2023-02-02T16:28:34;10.80;99.90
31809;DHT22;18379;48.208;-1.518;2023-02-02T16:33:37;10.70;99.90
31809;DHT22;18379;48.208;-1.518;2023-02-02T16:38:40;10.70;99.90
31809;DHT22;18379;48.208;-1.518;2023-02-02T16:43:41;10.50;99.90
31809;DHT22;18379;48.208;-1.518;2023-02-02T16:48:56;10.60;99.90
31809;DHT22;18379;48.208;-1.518;2023-02-02T16:54:01;10.60;99.90
31809;DHT22;18379;48.208;-1.518;2023-02-02T16:59:25;10.60;99.90
31809;DHT22;18379;48.208;-1.518;2023-02-02T17:04:27;10.50;99.90
31809;DHT22;18379;48.208;-1.518;2023-02-02T17:09:33;10.40;99.90
31809;DHT22;18379;48.208;-1.518;2023-02-02T17:14:35;10.40;99.90
31809;DHT22;18379;48.208;-1.518;2023-02-02T17:19:36;10.30;99.90
31809;DHT22;18379;48.208;-1.518;2023-02-02T17:24:37;10.30;99.90
31809;DHT22;18379;48.208;-1.518;2023-02-02T17:29:38;10.40;99.90
31809;DHT22;18379;48.208;-1.518;2023-02-02T17:34:39;10.40;99.90
31809;DHT22;18379;48.208;-1.518;2023-02-02T17:39:40;10.40;99.90
31809;DHT22;18379;48.208;-1.518;2023-02-02T17:44:42;10.30;99.90
31809;DHT22;18379;48.208;-1.518;2023-02-02T17:49:42;10.20;99.90
31809;DHT22;18379;48.208;-1.518;2023-02-02T17:54:43;10.10;99.90
31809;DHT22;18379;48.208;-1.518;2023-02-02T18:05:02;10.10;99.90
31809;DHT22;18379;48.208;-1.518;2023-02-02T18:10:05;10.10;99.90
31809;DHT22;18379;48.208;-1.518;2023-02-02T18:15:12;10.00;99.90
31809;DHT22;18379;48.208;-1.518;2023-02-02T18:20:14;10.00;99.90
31809;DHT22;18379;48.208;-1.518;2023-02-02T18:25:15;10.00;99.90
31809;DHT22;18379;48.208;-1.518;2023-02-02T18:30:16;9.90;99.90
31809;DHT22;18379;48.208;-1.518;2023-02-02T18:35:17;9.90;99.90
31809;DHT22;18379;48.208;-1.518;2023-02-02T18:40:18;9.90;99.90
31809;DHT22;18379;48.208;-1.518;2023-02-02T18:45:19;9.80;99.90
31809;DHT22;18379;48.208;-1.518;2023-02-02T18:50:20;9.80;99.90
31809;DHT22;18379;48.208;-1.518;2023-02-02T18:55:21;9.90;99.90
31809;DHT22;18379;48.208;-1.518;2023-02-02T19:00:23;9.80;99.90
31809;DHT22;18379;48.208;-1.518;2023-02-02T19:05:24;9.80;99.90
31809;DHT22;18379;48.208;-1.518;2023-02-02T19:10:45;9.80;99.90
31809;DHT22;18379;48.208;-1.518;2023-02-02T19:15:47;9.70;99.90
31809;DHT22;18379;48.208;-1.518;2023-02-02T19:20:50;9.70;99.90
31809;DHT22;18379;48.208;-1.518;2023-02-02T19:25:53;9.70;99.90
31809;DHT22;18379;48.208;-1.518;2023-02-02T19:31:00;9.60;99.90
31809;DHT22;18379;48.208;-1.518;2023-02-02T19:36:01;9.70;99.90
31809;DHT22;18379;48.208;-1.518;2023-02-02T19:41:22;9.60;99.90
31809;DHT22;18379;48.208;-1.518;2023-02-02T19:46:25;9.60;99.90
31809;DHT22;18379;48.208;-1.518;2023-02-02T19:56:41;9.70;99.90
31809;DHT22;18379;48.208;-1.518;2023-02-02T20:01:44;9.70;99.90
31809;DHT22;18379;48.208;-1.518;2023-02-02T20:06:49;9.70;99.90
31809;DHT22;18379;48.208;-1.518;2023-02-02T20:11:51;9.60;99.90
31809;DHT22;18379;48.208;-1.518;2023-02-02T20:17:05;9.60;99.90
31809;DHT22;18379;48.208;-1.518;2023-02-02T20:22:27;9.60;99.90
31809;DHT22;18379;48.208;-1.518;2023-02-02T20:27:31;9.60;99.90
31809;DHT22;18379;48.208;-1.518;2023-02-02T20:32:39;9.60;99.90
31809;DHT22;18379;48.208;-1.518;2023-02-02T20:37:40;9.60;99.90
31809;DHT22;18379;48.208;-1.518;2023-02-02T20:42:42;9.60;99.90
31809;DHT22;18379;48.208;-1.518;2023-02-02T20:47:44;9.60;99.90
31809;DHT22;18379;48.208;-1.518;2023-02-02T20:52:45;9.60;99.90
31809;DHT22;18379;48.208;-1.518;2023-02-02T20:57:45;9.60;99.90
31809;DHT22;18379;48.208;-1.518;2023-02-02T21:02:46;9.60;99.90
31809;DHT22;18379;48.208;-1.518;2023-02-02T21:07:48;9.50;99.90
31809;DHT22;18379;48.208;-1.518;2023-02-02T21:12:55;9.50;99.90
31809;DHT22;18379;48.208;-1.518;2023-02-02T21:17:56;9.50;99.90
31809;DHT22;18379;48.208;-1.518;2023-02-02T21:22:56;9.50;99.90
31809;DHT22;18379;48.208;-1.518;2023-02-02T21:27:57;9.50;99.90
31809;DHT22;18379;48.208;-1.518;2023-02-02T21:32:59;9.40;99.90
31809;DHT22;18379;48.208;-1.518;2023-02-02T21:38:08;9.40;99.90
31809;DHT22;18379;48.208;-1.518;2023-02-02T21:43:16;9.30;99.90
31809;DHT22;18379;48.208;-1.518;2023-02-02T21:48:32;9.30;99.90
31809;DHT22;18379;48.208;-1.518;2023-02-02T21:53:35;9.30;99.90
31809;DHT22;18379;48.208;-1.518;2023-02-02T21:58:36;9.30;99.90
31809;DHT22;18379;48.208;-1.518;2023-02-02T22:03:42;9.40;99.90
31809;DHT22;18379;48.208;-1.518;2023-02-02T22:08:49;9.30;99.90
31809;DHT22;18379;48.208;-1.518;2023-02-02T22:13:51;9.40;99.90
31809;DHT22;18379;48.208;-1.518;2023-02-02T22:18:52;9.30;99.90
31809;DHT22;18379;48.208;-1.518;2023-02-02T22:23:53;9.30;99.90
31809;DHT22;18379;48.208;-1.518;2023-02-02T22:28:54;9.30;99.90
31809;DHT22;18379;48.208;-1.518;2023-02-02T22:34:06;9.30;99.90
31809;DHT22;18379;48.208;-1.518;2023-02-02T22:39:07;9.30;99.90
31809;DHT22;18379;48.208;-1.518;2023-02-02T22:44:09;9.30;99.90
31809;DHT22;18379;48.208;-1.518;2023-02-02T22:49:13;9.20;99.90
31809;DHT22;18379;48.208;-1.518;2023-02-02T22:54:34;9.20;99.90
31809;DHT22;18379;48.208;-1.518;2023-02-02T22:59:37;9.30;99.90
31809;DHT22;18379;48.208;-1.518;2023-02-02T23:04:39;9.30;99.90
31809;DHT22;18379;48.208;-1.518;2023-02-02T23:09:41;9.30;99.90
31809;DHT22;18379;48.208;-1.518;2023-02-02T23:14:41;9.30;99.90
31809;DHT22;18379;48.208;-1.518;2023-02-02T23:19:53;9.30;99.90
31809;DHT22;18379;48.208;-1.518;2023-02-02T23:25:01;9.30;99.90
31809;DHT22;18379;48.208;-1.518;2023-02-02T23:30:03;9.30;99.90
31809;DHT22;18379;48.208;-1.518;2023-02-02T23:35:06;9.30;99.90
31809;DHT22;18379;48.208;-1.518;2023-02-02T23:40:10;9.30;99.90
31809;DHT22;18379;48.208;-1.518;2023-02-02T23:45:28;9.10;99.90
31809;DHT22;18379;48.208;-1.518;2023-02-02T23:50:29;9.10;99.90
31809;DHT22;18379;48.208;-1.518;2023-02-02T23:55:32;9.20;99.90
